Tiempo atmosférico en la estación meteorológica de Villadepera, Zamora (790 m.)



Fecha
DESCASC
Temp. máxima en grados centígrados (hora)
DESCASC
Temp. mínima en grados centígrados (hora)
DESCASC
Temp. media en grados centígrados
DESCASC
Racha de viento máxima en m/sg (hora)
DESCASC
Velocidad máxima media en intervalos de 10 minutos(hora)
DESCASC
Precipitaciones diarias en mm
DESCASC
Precipitaciones de 00:00 a 06:00 en mm
DESCASC
Precipitaciones de 06:00 a 12:00 en mm
DESCASC
Precipitaciones de 12:00 a 18:00 en mm
DESCASC
Precipitaciones de 18:00 a 24:00 en mm
DESCASC
15-01-2020 11.2 (16:20) 5.7 (00:00) 8.4 18.33 (07:50) 13.89 (07:50) 7.2 0 7 0 0.2
18-01-2020 10.8 (16:40) 4 (00:00) 7.4 19.44 (16:50) 15 (17:00) 3 0 3 0 0
25-01-2020 6.3 (17:20) 2.7 (00:00) 4.5 6.67 (10:20) 5 (10:20) 0.8 0 0.6 0.2 0
24-01-2020 7.5 (13:30) 3.4 (00:00) 5.5 3.89 (15:50) 3.06 (15:50) 0.8 0.4 0.4 0 0
31-12-2019 8.1 (16:20) -3.4 (-00:0) 2.4 3.33 (03:50) 2.5 (04:00) 0.2 0 0.2 0 0
22-01-2020 9.3 (15:20) 2.9 (00:00) 6.1 23.89 (00:40) 15.83 (00:10) 0.2 0 0.2 0 0
03-01-2020 6 (12:50) 0.6 (00:00) 3.3 4.17 (01:40) 3.61 (02:00) 0.2 0 0.2 0 0
17-01-2020 8.7 (16:20) 4.4 (00:00) 6.5 11.39 (11:40) 8.61 (13:00) 1 0.8 0.2 0 0
08-01-2020 6.9 (16:30) -2.9 (-00:0) 2 4.17 (23:10) 3.61 (23:10) 0.2 0 0.2 0 0
13-01-2020 6.8 (17:20) -3.8 (-00:0) 1.5 8.89 (23:59) 6.67 (23:59) 0.2 0 0 0.2 0
11-01-2020 7.3 (15:50) -1.2 (-00:0) 3.1 5.56 (13:40) 3.33 (00:20) 0 0 0 0 0
14-01-2020 8.1 (14:30) 3.5 (00:00) 5.8 13.33 (17:30) 10 (17:20) 0 0 0 0 0
16-01-2020 10.9 (14:30) 6.5 (00:00) 8.7 18.33 (19:50) 13.06 (14:10) 4.4 0.2 0 0.2 4
19-01-2020 8.5 (13:40) -0.1 (00:00) 4.2 22.5 (14:10) 14.44 (12:50) 0 0 0 0 0
20-01-2020 3.4 (13:10) -1.5 (-00:0) 1 25.28 (11:30) 15.83 (11:50) 0 0 0 0 0
21-01-2020 5.5 (15:40) 0.1 (00:00) 2.8 22.78 (22:10) 15 (23:59) 0 0 0 0 0
23-01-2020 8.1 (14:30) 0.8 (00:00) 4.5 10.56 (09:10) 7.22 (09:10) 0 0 0 0 0
12-01-2020 -0.6 (15:30) -5.7 (06:20) -3.1 2.78 (12:00) 1.94 (12:00) 0.2 0 0 0.2 0
27-12-2019 3.1 (16:30) -0.2 (00:00) 1.4 7.78 (11:50) 5.56 (02:00) 0 0 0 0 0
10-01-2020 8.9 (14:30) -1.5 (-00:0) 3.7 7.78 (16:10) 5.56 (13:10) 0 0 0 0 0
09-01-2020 9.3 (15:30) -0.1 (00:00) 4.6 13.89 (15:30) 10.83 (15:20) 0 0 0 0 0
07-01-2020 0.5 (16:10) -3 (-00:0) -1.3 5.83 (00:10) 3.89 (00:10) 0 0 0 0 0
06-01-2020 1 (16:20) -2.5 (-00:0) -0.8 5.56 (23:59) 4.17 (23:59) 0.2 0 0 0.2 0
05-01-2020 2.6 (17:00) -0.5 (-00:0) 1 6.94 (00:50) 5 (02:10) 0 0 0 0 0
04-01-2020 5.5 (14:00) 0.9 (00:00) 3.2 7.22 (15:00) 5 (15:00) 0 0 0 0 0
02-01-2020 3.2 (16:10) -3.9 (-00:0) -0.4 4.44 (23:00) 3.61 (23:00) 0.2 0 0 0.2 0
01-01-2020 1.8 (15:20) -4.6 (-00:0) -1.4 2.78 (13:20) 1.94 (00:20) 0 0 0 0 0
30-12-2019 -- (--) -- (--) -- -- (--) -- (--) -- 0 0 -- 0
29-12-2019 10.6 (15:50) -1.2 (-00:0) 4.7 5.56 (13:40) 4.17 (13:30) 0 0 0 0 0
28-12-2019 9.4 (15:40) -1.2 (-00:0) 4.1 6.67 (04:40) 5.28 (04:40) 0 0 0 0 0

Gráficas

Temp. máximas Temp. mínimas Temp. medias Precipitaciones Rachas de viento máximas Velocidades máximas media en intervalos de 10 minutos

Datos horarios

Fecha y hora oficial Temperatura (ºC) Velocidad del viento (km/h) Dirección del viento Racha (km/h) Dirección de racha Precipitación (mm) Presión (hPa) Tendencia (hPa) Humedad (%)
2020-01-25 23:00:00 3 11 Oeste 12 Oeste 0 -- -- 99
2020-01-25 22:00:00 4.2 7 Noroeste 12 Noroeste 0 -- -- 95
2020-01-25 21:00:00 4.6 7 Norte 10 Noroeste 0 -- -- 95
2020-01-25 20:00:00 5.1 9 Noroeste 11 Noroeste 0 -- -- 92
2020-01-25 19:00:00 5.5 3 Norte 6 Noroeste 0 -- -- 94
2020-01-25 18:00:00 6.1 3 Norte 5 Noroeste 0 -- -- 92
2020-01-25 17:00:00 6.2 2 Norte 9 Nordeste 0 -- -- 91
2020-01-25 16:00:00 6 6 Nordeste 12 Este 0 -- -- 93
2020-01-25 15:00:00 6 6 Este 12 Nordeste 0 -- -- 92
2020-01-25 14:00:00 5.7 8 Nordeste 14 Nordeste 0 -- -- 95
2020-01-25 13:00:00 5.8 11 Nordeste 16 Este 0.2 -- -- 97
2020-01-25 12:00:00 5.1 13 Nordeste 20 Nordeste 0.4 -- -- 100
2020-01-25 11:00:00 4.4 14 Nordeste 24 Nordeste 0.2 -- -- 100
2020-01-25 10:00:00 3.9 15 Nordeste 23 Nordeste 0 -- -- 100
2020-01-25 09:00:00 3.2 12 Nordeste 17 Nordeste 0 -- -- 100
2020-01-25 08:00:00 2.9 12 Nordeste 18 Nordeste 0 -- -- 100
2020-01-25 07:00:00 2.9 13 Nordeste 18 Nordeste 0 -- -- 100
2020-01-25 06:00:00 3.2 10 Nordeste 17 Nordeste 0 -- -- 100
2020-01-25 05:00:00 3.2 11 Nordeste 21 Nordeste 0 -- -- 100
2020-01-25 04:00:00 3.2 12 Nordeste 18 Nordeste 0 -- -- 99
2020-01-25 03:00:00 3.6 12 Norte 19 Norte 0 -- -- 100
2020-01-25 02:00:00 3.7 10 Nordeste 13 Nordeste 0 -- -- 100
2020-01-25 01:00:00 4 12 Nordeste 16 Nordeste 0 -- -- 100
2020-01-25 00:00:00 3.5 8 Este 14 Este 0 -- -- 99
2020-01-24 23:00:00 4 10 Sudeste 13 Sudeste 0 -- -- 98
2020-01-24 22:00:00 4.6 9 Nordeste 10 Nordeste 0 -- -- 97
2020-01-24 21:00:00 4.7 6 Este 12 Este 0 -- -- 97
2020-01-24 20:00:00 5.2 9 Este 12 Este 0 -- -- 96
2020-01-24 19:00:00 5.5 8 Nordeste 10 Nordeste 0 -- -- 95
2020-01-24 18:00:00 5.9 8 Nordeste 12 Nordeste 0 -- -- 94
2020-01-24 17:00:00 6.3 5 Este 13 Este 0 -- -- 91
2020-01-24 16:00:00 6.7 10 Este 14 Nordeste 0 -- -- 89
2020-01-24 15:00:00 7.2 6 Nordeste 10 Este 0 -- -- 86
2020-01-24 14:00:00 7.3 6 Este 11 Este 0 -- -- 89
2020-01-24 13:00:00 7.3 4 Sudeste 9 Este 0 -- -- 90
2020-01-24 12:00:00 6 6 Nordeste 11 Nordeste 0.2 -- -- 97
2020-01-24 11:00:00 4.3 8 Este 12 Sudeste 0 -- -- 98
2020-01-24 10:00:00 4 4 Este 9 Nordeste 0.2 -- -- 98
2020-01-24 09:00:00 3.4 6 Nordeste 9 Nordeste 0 -- -- 98
2020-01-24 08:00:00 3.5 6 Este 9 Este 0 -- -- 97
2020-01-24 07:00:00 3.4 5 Este 11 Nordeste 0 -- -- 97
2020-01-24 06:00:00 3.4 8 Este 9 Este 0 -- -- 97
2020-01-24 05:00:00 3.8 8 Nordeste 12 Norte 0.4 -- -- 96
2020-01-24 04:00:00 3.8 8 Norte 11 Nordeste 0 -- -- 94
2020-01-24 03:00:00 3.9 8 Nordeste 13 Nordeste 0 -- -- 93
2020-01-24 02:00:00 3.9 6 Nordeste 10 Nordeste 0 -- -- 93
2020-01-24 01:00:00 3.9 7 Nordeste 12 Nordeste 0 -- -- 92
2020-01-24 00:00:00 4.6 6 Nordeste 9 Nordeste 0 -- -- 89
2020-01-23 23:00:00 4.8 7 Este 9 Este 0 -- -- 88
2020-01-23 22:00:00 4.9 7 Nordeste 13 Este 0 -- -- 88
2020-01-23 21:00:00 4.9 9 Este 15 Nordeste 0 -- -- 87
2020-01-23 20:00:00 5.1 10 Nordeste 22 Nordeste 0 -- -- 85
2020-01-23 19:00:00 5.5 14 Nordeste 24 Nordeste 0 -- -- 84
2020-01-23 18:00:00 6.8 17 Nordeste 26 Nordeste 0 -- -- 80
2020-01-23 17:00:00 7.8 19 Nordeste 30 Nordeste 0 -- -- 75
2020-01-23 16:00:00 8.1 18 Este 29 Este 0 -- -- 75
2020-01-23 15:00:00 7.8 17 Este 30 Este 0 -- -- 75
2020-01-23 14:00:00 7.3 17 Este 28 Este 0 -- -- 74
2020-01-23 13:00:00 6.2 18 Este 32 Este 0 -- -- 78
2020-01-23 12:00:00 5.4 20 Este 33 Este 0 -- -- 82
2020-01-23 11:00:00 3 20 Nordeste 31 Nordeste 0 -- -- 90
2020-01-23 10:00:00 1.4 20 Nordeste 38 Nordeste 0 -- -- 96
2020-01-23 09:00:00 0.8 25 Nordeste 34 Nordeste 0 -- -- 96
2020-01-23 08:00:00 1.1 22 Nordeste 34 Nordeste 0 -- -- 97
2020-01-23 07:00:00 1.1 22 Nordeste 32 Nordeste 0 -- -- 97
2020-01-23 06:00:00 1.4 22 Nordeste 31 Nordeste 0 -- -- 96
2020-01-23 05:00:00 1.3 17 Nordeste 27 Nordeste 0 -- -- 96
2020-01-23 04:00:00 1.6 17 Nordeste 32 Nordeste 0 -- -- 95
2020-01-23 03:00:00 1.9 15 Nordeste 27 Nordeste 0 -- -- 94
2020-01-23 02:00:00 2.4 16 Nordeste 29 Nordeste 0 -- -- 93
2020-01-23 01:00:00 3.1 21 Nordeste 30 Nordeste 0 -- -- 92
2020-01-23 00:00:00 4.4 15 Nordeste 22 Nordeste 0 -- -- 87
2020-01-22 23:00:00 5 13 Nordeste 22 Nordeste 0 -- -- 85
2020-01-22 22:00:00 5.5 12 Nordeste 23 Nordeste 0 -- -- 83
2020-01-22 21:00:00 5.6 14 Nordeste 24 Nordeste 0 -- -- 81
2020-01-22 20:00:00 6 16 Nordeste 23 Nordeste 0 -- -- 81
2020-01-22 19:00:00 7 12 Nordeste 21 Nordeste 0 -- -- 76
2020-01-22 18:00:00 7.7 13 Nordeste 29 Nordeste 0 -- -- 71
2020-01-22 17:00:00 8.4 15 Nordeste 29 Nordeste 0 -- -- 70
2020-01-22 16:00:00 8.2 23 Este 33 Este 0 -- -- 70
2020-01-22 15:00:00 8.7 26 Este 38 Nordeste 0 -- -- 69
2020-01-22 14:00:00 7.9 28 Nordeste 40 Nordeste 0 -- -- 74
2020-01-22 13:00:00 6.4 25 Este 41 Nordeste 0 -- -- 80
2020-01-22 12:00:00 6 25 Nordeste 45 Nordeste 0 -- -- 82
2020-01-22 11:00:00 5 31 Nordeste 50 Nordeste 0 -- -- 87
2020-01-22 10:00:00 4.7 28 Nordeste 50 Nordeste 0 -- -- 90
2020-01-22 09:00:00 3.7 35 Nordeste 50 Nordeste 0 -- -- 94
2020-01-22 08:00:00 3.6 33 Nordeste 57 Nordeste 0.2 -- -- 94
2020-01-22 07:00:00 3.8 37 Nordeste 60 Nordeste 0 -- -- 93
2020-01-22 06:00:00 3.7 39 Nordeste 64 Nordeste 0 -- -- 92
2020-01-22 05:00:00 3.8 42 Nordeste 62 Este 0 -- -- 88
2020-01-22 04:00:00 3.3 31 Nordeste 67 Nordeste 0 -- -- 89
2020-01-22 03:00:00 3.2 49 Nordeste 76 Nordeste 0 -- -- 89
2020-01-22 02:00:00 3 47 Nordeste 83 Nordeste 0 -- -- 88
2020-01-22 01:00:00 3 53 Nordeste 86 Este 0 -- -- 86
2020-01-22 00:00:00 3.8 54 Nordeste 81 Nordeste 0 -- -- 80
2020-01-21 23:00:00 4.4 46 Nordeste 82 Nordeste 0 -- -- 78
2020-01-21 22:00:00 4.8 51 Nordeste 77 Nordeste 0 -- -- 77
2020-01-21 21:00:00 4.4 47 Nordeste 71 Nordeste 0 -- -- 78
2020-01-21 20:00:00 3.7 48 Nordeste 72 Nordeste 0 -- -- 81
2020-01-21 19:00:00 3.2 37 Nordeste 59 Este 0 -- -- 85
2020-01-21 18:00:00 4 40 Nordeste 69 Nordeste 0 -- -- 81
2020-01-21 17:00:00 4.6 43 Nordeste 63 Nordeste 0 -- -- 78
2020-01-21 16:00:00 5.2 41 Nordeste 66 Nordeste 0 -- -- 75
2020-01-21 15:00:00 5.1 36 Nordeste 59 Nordeste 0 -- -- 73
2020-01-21 14:00:00 4.2 36 Nordeste 66 Nordeste 0 -- -- 76
2020-01-21 13:00:00 4.2 43 Nordeste 71 Nordeste 0 -- -- 72
2020-01-21 12:00:00 4.3 43 Nordeste 69 Nordeste 0 -- -- 70
2020-01-21 11:00:00 3.3 49 Nordeste 73 Nordeste 0 -- -- 71
2020-01-21 10:00:00 2.4 48 Nordeste 77 Nordeste 0 -- -- 73
2020-01-21 09:00:00 1.3 46 Nordeste 72 Nordeste 0 -- -- 77
2020-01-21 08:00:00 0.8 44 Nordeste 63 Nordeste 0 -- -- 80
2020-01-21 07:00:00 0.3 36 Nordeste 62 Nordeste 0 -- -- 81
2020-01-21 06:00:00 0.4 35 Nordeste 59 Nordeste 0 -- -- 81
2020-01-21 05:00:00 0.4 38 Nordeste 66 Nordeste 0 -- -- 83
2020-01-21 04:00:00 0.5 43 Nordeste 71 Nordeste 0 -- -- 83
2020-01-21 03:00:00 0.3 49 Nordeste 67 Nordeste 0 -- -- 84
2020-01-21 02:00:00 0.3 41 Nordeste 62 Nordeste 0 -- -- 85
2020-01-21 01:00:00 0.2 40 Nordeste 63 Nordeste 0 -- -- 83
2020-01-21 00:00:00 0.5 40 Nordeste 62 Este 0 -- -- 81
2020-01-20 23:00:00 0.7 46 Nordeste 67 Nordeste 0 -- -- 79
2020-01-20 22:00:00 0.9 41 Nordeste 70 Nordeste 0 -- -- 74
2020-01-20 21:00:00 1.4 42 Nordeste 74 Nordeste 0 -- -- 70
2020-01-20 20:00:00 1.9 45 Nordeste 66 Nordeste 0 -- -- 66
2020-01-20 19:00:00 2 47 Nordeste 69 Nordeste 0 -- -- 61
2020-01-20 18:00:00 2.2 42 Nordeste 64 Nordeste 0 -- -- 60
2020-01-20 17:00:00 2.3 42 Nordeste 69 Nordeste 0 -- -- 62
2020-01-20 16:00:00 2.3 44 Nordeste 65 Nordeste 0 -- -- 60
2020-01-20 15:00:00 2.4 39 Nordeste 73 Nordeste 0 -- -- 59
2020-01-20 14:00:00 3.1 46 Nordeste 83 Nordeste 0 -- -- 54
2020-01-20 13:00:00 3.3 47 Nordeste 82 Nordeste 0 -- -- 51
2020-01-20 12:00:00 2.6 54 Nordeste 91 Nordeste 0 -- -- 56
2020-01-20 11:00:00 1.9 46 Nordeste 72 Nordeste 0 -- -- 59
2020-01-20 10:00:00 0.9 48 Nordeste 72 Nordeste 0 -- -- 65
2020-01-20 09:00:00 -0.5 34 Nordeste 55 Nordeste 0 -- -- 71
2020-01-20 08:00:00 -0.7 23 Nordeste 53 Nordeste 0 -- -- 75
2020-01-20 07:00:00 -0.8 29 Nordeste 46 Este 0 -- -- 75
2020-01-20 06:00:00 -1.5 16 Nordeste 49 Nordeste 0 -- -- 80
2020-01-20 05:00:00 -0.7 26 Nordeste 42 Nordeste 0 -- -- 77
2020-01-20 04:00:00 -0.6 22 Este 46 Este 0 -- -- 77
2020-01-20 03:00:00 0 30 Nordeste 52 Nordeste 0 -- -- 74
2020-01-20 02:00:00 0.4 31 Nordeste 53 Nordeste 0 -- -- 73
2020-01-20 01:00:00 0.6 30 Nordeste 52 Nordeste 0 -- -- 73
2020-01-20 00:00:00 0.4 22 Nordeste 42 Nordeste 0 -- -- 72
2020-01-19 23:00:00 0.8 30 Nordeste 43 Nordeste 0 -- -- 69
2020-01-19 22:00:00 0.1 18 Nordeste 26 Nordeste 0 -- -- 71
2020-01-19 21:00:00 0.3 15 Nordeste 22 Este 0 -- -- 70
2020-01-19 20:00:00 2.3 19 Nordeste 57 Nordeste 0 -- -- 55
2020-01-19 19:00:00 3.7 35 Nordeste 64 Nordeste 0 -- -- 49
2020-01-19 18:00:00 5.4 41 Nordeste 60 Este 0 -- -- 46
2020-01-19 17:00:00 7 44 Nordeste 63 Nordeste 0 -- -- 42
2020-01-19 16:00:00 8.2 41 Nordeste 69 Nordeste 0 -- -- 40
2020-01-19 15:00:00 8.2 45 Nordeste 81 Nordeste 0 -- -- 47
2020-01-19 14:00:00 8.3 45 Nordeste 67 Nordeste 0 -- -- 49
2020-01-19 13:00:00 7.6 49 Nordeste 78 Nordeste 0 -- -- 49
2020-01-19 12:00:00 7.2 45 Nordeste 69 Nordeste 0 -- -- 60
2020-01-19 11:00:00 6.4 26 Nordeste 44 Nordeste 0 -- -- 71
2020-01-19 10:00:00 4.3 12 Nordeste 29 Nordeste 0 -- -- 86
2020-01-19 09:00:00 2.7 7 Nordeste 15 Nordeste 0 -- -- 90
2020-01-19 08:00:00 2.7 6 Nordeste 13 Norte 0 -- -- 89
2020-01-19 07:00:00 2.8 6 Norte 9 Norte 0 -- -- 91
2020-01-19 06:00:00 3.1 8 Norte 13 Norte 0 -- -- 92
2020-01-19 05:00:00 2.1 8 Noroeste 9 Norte 0 -- -- 100
2020-01-19 04:00:00 1.9 4 Noroeste 12 Oeste 0 -- -- 100
2020-01-19 03:00:00 2.4 10 Oeste 16 Oeste 0 -- -- 99
2020-01-19 02:00:00 2.9 9 Oeste 11 Noroeste 0 -- -- 98
2020-01-19 01:00:00 3.6 10 Oeste 19 Oeste 0 -- -- 96
2020-01-19 00:00:00 4.6 17 Oeste 31 Oeste 0 -- -- 93
2020-01-18 23:00:00 4.8 24 Oeste 30 Oeste 0 -- -- 91
2020-01-18 22:00:00 5 27 Oeste 37 Oeste 0 -- -- 88
2020-01-18 21:00:00 4.6 22 Oeste 33 Oeste 0 -- -- 89
2020-01-18 20:00:00 5.4 19 Oeste 39 Oeste 0 -- -- 87
2020-01-18 19:00:00 7.6 24 Oeste 56 Oeste 0 -- -- 83
2020-01-18 18:00:00 9.1 42 Oeste 65 Sudoeste 0 -- -- 74
2020-01-18 17:00:00 10.7 54 Sudoeste 70 Sudoeste 0 -- -- 83
2020-01-18 16:00:00 10.7 44 Sudoeste 61 Sudoeste 0 -- -- 92
2020-01-18 15:00:00 9.7 43 Sudoeste 59 Sudoeste 0 -- -- 97
2020-01-18 14:00:00 8.7 35 Sudoeste 57 Sudoeste 0 -- -- 98
2020-01-18 13:00:00 8.4 39 Sudoeste 56 Sudoeste 0 -- -- 99
2020-01-18 12:00:00 8 33 Sudoeste 46 Sudoeste 0.2 -- -- 100
2020-01-18 11:00:00 6.3 10 Sudoeste 13 Sudoeste 0.4 -- -- 100
2020-01-18 10:00:00 5.5 6 Sur 10 Sudeste 0.6 -- -- 99
2020-01-18 09:00:00 5.4 5 Sur 11 Este 0.2 -- -- 99
2020-01-18 08:00:00 5.2 7 Sudeste 12 Sudeste 0.8 -- -- 98
2020-01-18 07:00:00 5.4 7 Sur 19 Sur 0.8 -- -- 96
2020-01-18 06:00:00 5.5 11 Sur 24 Sudoeste 0 -- -- 94
2020-01-18 05:00:00 5.5 18 Sudoeste 25 Sudoeste 0 -- -- 92
2020-01-18 04:00:00 4.2 12 Sudeste 14 Sur 0 -- -- 89
2020-01-18 03:00:00 4.6 5 Sudeste 9 Sudeste 0 -- -- 87
2020-01-18 02:00:00 4.5 4 Sudeste 6 Sur 0 -- -- 85
2020-01-18 01:00:00 4.5 4 Sur 10 Sudeste 0 -- -- 83
2020-01-18 00:00:00 4.6 4 Sur 9 Este 0 -- -- 81
2020-01-17 23:00:00 4.4 4 Sur 9 Este 0 -- -- 85
2020-01-17 22:00:00 5.2 2 Este 6 Sudeste 0 -- -- 75
2020-01-17 21:00:00 5.6 3 Sudoeste 6 Sur 0 -- -- 74
2020-01-17 20:00:00 5.7 6 Oeste 10 Oeste 0 -- -- 74
2020-01-17 19:00:00 5.9 6 Noroeste 10 Noroeste 0 -- -- 72
2020-01-17 18:00:00 6.5 8 Oeste 22 Oeste 0 -- -- 68
2020-01-17 17:00:00 7.8 19 Oeste 33 Oeste 0 -- -- 67
2020-01-17 16:00:00 8.3 20 Oeste 33 Oeste 0 -- -- 67
2020-01-17 15:00:00 7.7 26 Oeste 38 Oeste 0 -- -- 71
2020-01-17 14:00:00 7.9 31 Oeste 41 Oeste 0 -- -- 68
2020-01-17 13:00:00 7.9 31 Oeste 40 Oeste 0 -- -- 76
2020-01-17 12:00:00 7.3 26 Oeste 41 Oeste 0 -- -- 81
2020-01-17 11:00:00 6.4 27 Oeste 36 Oeste 0 -- -- 91
2020-01-17 10:00:00 5.5 21 Oeste 31 Oeste 0 -- -- 99
2020-01-17 09:00:00 5 23 Oeste 31 Oeste 0.2 -- -- 99
2020-01-17 08:00:00 5 18 Sudoeste 22 Sudoeste 0 -- -- 99
2020-01-17 07:00:00 5.1 19 Sudoeste 30 Sudoeste 0 -- -- 99
2020-01-17 06:00:00 5.8 23 Sudoeste 35 Sudoeste 0.2 -- -- 99
2020-01-17 05:00:00 6.2 26 Sudoeste 36 Sudoeste 0.2 -- -- 100
2020-01-17 04:00:00 6.2 21 Sudoeste 38 Sudoeste 0.2 -- -- 99
2020-01-17 03:00:00 6.1 23 Sudoeste 36 Sudoeste 0.2 -- -- 99
2020-01-17 02:00:00 6 26 Sudoeste 39 Sudoeste 0 -- -- 99
2020-01-17 01:00:00 5.7 28 Sudoeste 38 Sudoeste 0 -- -- 99
2020-01-17 00:00:00 6.5 27 Sudoeste 39 Sudoeste 0 -- -- 98
2020-01-16 23:00:00 7 23 Sudoeste 40 Sudoeste 0 -- -- 99
2020-01-16 22:00:00 7.3 35 Sudoeste 59 Sudoeste 3.6 -- -- 98
2020-01-16 21:00:00 7.6 34 Sudoeste 65 Sudoeste 0.4 -- -- 96
2020-01-16 20:00:00 8.4 46 Sudoeste 66 Sudoeste 0 -- -- 85
2020-01-16 19:00:00 8.8 33 Sudoeste 58 Sudoeste 0 -- -- 78
2020-01-16 18:00:00 9.3 35 Sudoeste 50 Sudoeste 0 -- -- 74
2020-01-16 17:00:00 9.6 38 Sudoeste 57 Sudoeste 0 -- -- 73
2020-01-16 16:00:00 10.1 39 Sudoeste 60 Sur 0 -- -- 72
2020-01-16 15:00:00 10.4 40 Sudoeste 63 Sudoeste 0 -- -- 72
2020-01-16 14:00:00 10.3 42 Sudoeste 58 Sudoeste 0.2 -- -- 73
2020-01-16 13:00:00 10.3 38 Sudoeste 61 Sudoeste 0 -- -- 76
2020-01-16 12:00:00 10.2 41 Sudoeste 57 Sur 0 -- -- 78
2020-01-16 11:00:00 9.8 40 Sudoeste 53 Sur 0 -- -- 85
2020-01-16 10:00:00 9 35 Sudoeste 60 Sudoeste 0 -- -- 91
2020-01-16 09:00:00 8.9 30 Sudoeste 44 Sur 0 -- -- 93
2020-01-16 08:00:00 8.9 28 Sudoeste 53 Sudoeste 0 -- -- 94
2020-01-16 07:00:00 8.7 28 Sudoeste 48 Sudoeste 0 -- -- 95
2020-01-16 06:00:00 8.8 29 Sudoeste 46 Sudoeste 0 -- -- 94
2020-01-16 05:00:00 8.6 22 Sudoeste 34 Sudoeste 0 -- -- 95
2020-01-16 04:00:00 8.7 21 Sur 41 Sur 0 -- -- 96
2020-01-16 03:00:00 8.4 27 Sur 40 Sur 0.2 -- -- 96
2020-01-16 02:00:00 8.8 27 Sudoeste 37 Sudoeste 0 -- -- 95
2020-01-16 01:00:00 8.1 15 Sur 25 Sudoeste 0 -- -- 96
2020-01-16 00:00:00 7.8 12 Sur 20 Sur 0 -- -- 97
2020-01-15 23:00:00 8.2 8 Sur 18 Sur 0 -- -- 96
2020-01-15 22:00:00 8.5 13 Sur 27 Sudoeste 0.2 -- -- 97
2020-01-15 21:00:00 9 20 Sudoeste 32 Sudoeste 0 -- -- 94
2020-01-15 20:00:00 9 23 Sudoeste 38 Sudoeste 0 -- -- 93
2020-01-15 19:00:00 9.4 20 Sudoeste 39 Sudoeste 0 -- -- 92
2020-01-15 18:00:00 10.1 26 Sudoeste 39 Sudoeste 0 -- -- 89
2020-01-15 17:00:00 10.6 16 Sudoeste 37 Sudoeste 0 -- -- 87
2020-01-15 16:00:00 10.7 25 Sudoeste 33 Sudoeste 0 -- -- 87
2020-01-15 15:00:00 10.7 26 Sudoeste 38 Sudoeste 0 -- -- 86
2020-01-15 14:00:00 10.4 24 Sudoeste 45 Sudoeste 0 -- -- 88
2020-01-15 13:00:00 9.4 22 Sudoeste 40 Sur 0 -- -- 91
2020-01-15 12:00:00 6.9 17 Sur 35 Sur 0.2 -- -- 99
2020-01-15 11:00:00 5.7 24 Sudoeste 35 Oeste 2.8 -- -- 99
2020-01-15 10:00:00 5.7 29 Oeste 49 Sudoeste 4 -- -- 99
2020-01-15 09:00:00 7.5 39 Sudoeste 59 Sudoeste 0 -- -- 91
2020-01-15 08:00:00 7.3 41 Sudoeste 66 Sudoeste 0 -- -- 91
2020-01-15 07:00:00 7.3 40 Sudoeste 57 Sudoeste 0 -- -- 91
2020-01-15 06:00:00 7.4 37 Sudoeste 56 Sudoeste 0 -- -- 90
2020-01-15 05:00:00 7.4 41 Sudoeste 59 Sudoeste 0 -- -- 89
2020-01-15 04:00:00 7.4 41 Sudoeste 57 Sur 0 -- -- 89
2020-01-15 03:00:00 7.4 40 Sudoeste 57 Sudoeste 0 -- -- 89
2020-01-15 02:00:00 7.4 37 Sudoeste 57 Sudoeste 0 -- -- 90
2020-01-15 01:00:00 7.1 32 Sudoeste 48 Sudoeste 0 -- -- 92
2020-01-15 00:00:00 6.7 28 Sudoeste 48 Sur 0 -- -- 94
2020-01-14 23:00:00 6.3 31 Sudoeste 44 Sudoeste 0 -- -- 95
2020-01-14 22:00:00 5.9 27 Sudoeste 45 Sur 0 -- -- 96
2020-01-14 21:00:00 5.7 30 Sudoeste 42 Sur 0 -- -- 95
2020-01-14 20:00:00 5.9 30 Sudoeste 45 Sudoeste 0 -- -- 92
2020-01-14 19:00:00 6.2 28 Sudoeste 44 Sudoeste 0 -- -- 89
2020-01-14 18:00:00 6.4 27 Sudoeste 48 Sudoeste 0 -- -- 88
2020-01-14 17:00:00 7.1 31 Sudoeste 46 Sudoeste 0 -- -- 84
2020-01-14 16:00:00 7.4 28 Sudoeste 44 Sudoeste 0 -- -- 85
2020-01-14 15:00:00 7.8 28 Sudoeste 43 Sudoeste 0 -- -- 81
2020-01-14 14:00:00 7.7 29 Sudoeste 41 Sur 0 -- -- 80
2020-01-14 13:00:00 6.4 24 Sudoeste 36 Sudoeste 0 -- -- 84
2020-01-14 12:00:00 6 27 Sudoeste 39 Sur 0 -- -- 86
2020-01-14 11:00:00 5.1 18 Sudoeste 28 Sudoeste 0 -- -- 89
2020-01-14 10:00:00 4.4 18 Sudoeste 31 Sudoeste 0 -- -- 89
2020-01-14 09:00:00 4 22 Sudoeste 32 Sudoeste 0 -- -- 88
2020-01-14 08:00:00 3.9 23 Sudoeste 31 Sudoeste 0 -- -- 88
2020-01-14 07:00:00 3.5 15 Sur 24 Sur 0 -- -- 89
2020-01-14 06:00:00 4.2 19 Sudoeste 35 Sudoeste 0 -- -- 87
2020-01-14 05:00:00 4.3 24 Sudoeste 32 Sudoeste 0 -- -- 87
2020-01-14 04:00:00 4.1 26 Sudoeste 38 Sudoeste 0 -- -- 87
2020-01-14 03:00:00 3.9 26 Sudoeste 38 Sudoeste 0 -- -- 89
2020-01-14 02:00:00 4.1 26 Sudoeste 36 Sudoeste 0 -- -- 89
2020-01-14 01:00:00 4 24 Sudoeste 36 Sudoeste 0 -- -- 90
2020-01-14 00:00:00 3.6 24 Sudoeste 32 Sudoeste 0 -- -- 91
2020-01-13 23:00:00 2.3 17 Sudoeste 22 Sudoeste 0 -- -- 95
2020-01-13 22:00:00 1.7 15 Sudoeste 21 Sudoeste 0 -- -- 95
2020-01-13 21:00:00 0.9 15 Oeste 21 Sudoeste 0 -- -- 94
2020-01-13 20:00:00 1.6 15 Oeste 22 Oeste 0 -- -- 90
2020-01-13 19:00:00 2.5 18 Sudoeste 22 Oeste 0 -- -- 86
2020-01-13 18:00:00 5.7 14 Sudoeste 26 Sudoeste 0 -- -- 79
2020-01-13 17:00:00 6.7 18 Sudoeste 22 Sudoeste 0 -- -- 76
2020-01-13 16:00:00 5.9 12 Sudoeste 25 Oeste 0 -- -- 84
2020-01-13 15:00:00 4.8 20 Oeste 26 Oeste 0 -- -- 90
2020-01-13 14:00:00 2.5 9 Oeste 20 Sudoeste 0.2 -- -- 100
2020-01-13 13:00:00 -0.1 0 Calma -- -- 0 -- -- 100
2020-01-13 12:00:00 -1.9 0 Calma -- -- 0 -- -- 100
2020-01-13 11:00:00 -3 0 Calma -- -- 0 -- -- 100
2020-01-13 10:00:00 -3.3 0 Calma -- -- 0 -- -- 99
2020-01-13 09:00:00 -3.6 0 Calma -- -- 0 -- -- 99
2020-01-13 08:00:00 -3.6 0 Calma -- -- 0 -- -- 99
2020-01-13 07:00:00 -3.7 0 Calma -- -- 0 -- -- 99
2020-01-13 06:00:00 -3.7 0 Calma -- -- 0 -- -- 99
2020-01-13 05:00:00 -3.5 0 Calma -- -- 0 -- -- 99
2020-01-13 04:00:00 -3.7 0 Calma -- -- 0 -- -- 99
2020-01-13 03:00:00 -3.6 0 Calma -- -- 0 -- -- 99
2020-01-13 02:00:00 -3.3 0 Calma -- -- 0 -- -- 99
2020-01-13 01:00:00 -3.4 0 Calma -- -- 0 -- -- 99
2020-01-13 00:00:00 -3.1 0 Calma -- -- 0 -- -- 99
2020-01-12 23:00:00 -3.3 0 Calma -- -- 0 -- -- 100
2020-01-12 22:00:00 -2.7 0 Calma -- -- 0 -- -- 100
2020-01-12 21:00:00 -2.5 0 Calma -- -- 0 -- -- 100
2020-01-12 20:00:00 -2.2 0 Calma -- -- 0 -- -- 100
2020-01-12 19:00:00 -1.6 0 Calma -- -- 0 -- -- 100
2020-01-12 18:00:00 -1.2 0 Calma -- -- 0 -- -- 100
2020-01-12 17:00:00 -1 0 Calma -- -- 0 -- -- 100
2020-01-12 16:00:00 -0.7 0 Calma 6 Este 0 -- -- 100
2020-01-12 15:00:00 -1 4 Este 9 Este 0 -- -- 100
2020-01-12 14:00:00 -1.3 7 Este 9 Este 0.2 -- -- 100
2020-01-12 13:00:00 -1.6 5 Este 10 Este 0 -- -- 100
2020-01-12 12:00:00 -2.2 7 Este 10 Este 0 -- -- 100
2020-01-12 11:00:00 -2.9 5 Este 9 Este 0 -- -- 100
2020-01-12 10:00:00 -3.5 6 Este 9 Este 0 -- -- 99
2020-01-12 09:00:00 -3.7 6 Nordeste 9 Nordeste 0 -- -- 99
2020-01-12 08:00:00 -4.4 5 Nordeste 8 Este 0 -- -- 99
2020-01-12 07:00:00 -5.2 4 Sudeste 6 Sudeste 0 -- -- 99
2020-01-12 06:00:00 -5.5 4 Este 5 Este 0 -- -- 99
2020-01-12 05:00:00 -5.2 3 Nordeste 4 Este 0 -- -- 99
2020-01-12 04:00:00 -4.6 2 Este 5 Sudeste 0 -- -- 99
2020-01-12 03:00:00 -4.5 3 Sudeste 5 Sudeste 0 -- -- 99
2020-01-12 02:00:00 -4.3 3 Sur 5 Sudeste 0 -- -- 96
2020-01-12 01:00:00 -2.4 0 Calma 6 Sudeste 0 -- -- 99
2020-01-12 00:00:00 -0.9 3 Sudeste 9 Sudeste 0 -- -- 98
2020-01-11 23:00:00 -0.3 5 Sudeste 8 Sudeste 0 -- -- 97
2020-01-11 22:00:00 0.3 5 Sudeste 9 Sudeste 0 -- -- 96
2020-01-11 21:00:00 1.1 7 Sudeste 8 Sudeste 0 -- -- 94
2020-01-11 20:00:00 1.9 7 Sudeste 13 Sudeste 0 -- -- 91
2020-01-11 19:00:00 3.1 12 Sudeste 12 Sudeste 0 -- -- 87
2020-01-11 18:00:00 5.6 4 Sudeste 10 Sudeste 0 -- -- 79
2020-01-11 17:00:00 6.9 7 Sudeste 12 Sudeste 0 -- -- 75
2020-01-11 16:00:00 7.3 8 Sudeste 17 Sudeste 0 -- -- 74
2020-01-11 15:00:00 6.6 12 Este 18 Este 0 -- -- 74
2020-01-11 14:00:00 6.2 10 Este 20 Este 0 -- -- 76
2020-01-11 13:00:00 5 8 Este 18 Este 0 -- -- 84
2020-01-11 12:00:00 3.3 8 Este 12 Este 0 -- -- 91
2020-01-11 11:00:00 0.7 3 Este 8 Sudeste 0 -- -- 97
2020-01-11 10:00:00 -0.6 5 Sudeste 8 Sudeste 0 -- -- 96
2020-01-11 09:00:00 -1.2 4 Este 6 Nordeste 0 -- -- 98
2020-01-11 08:00:00 -0.7 3 Nordeste 12 Nordeste 0 -- -- 97
2020-01-11 07:00:00 -0.8 10 Nordeste 13 Nordeste 0 -- -- 97
2020-01-11 06:00:00 -0.1 9 Nordeste 13 Nordeste 0 -- -- 95
2020-01-11 05:00:00 0 10 Nordeste 14 Nordeste 0 -- -- 96
2020-01-11 04:00:00 0.2 8 Nordeste 11 Nordeste 0 -- -- 94
2020-01-11 03:00:00 0.5 8 Nordeste 10 Nordeste 0 -- -- 93
2020-01-11 02:00:00 0.7 5 Este 13 Nordeste 0 -- -- 92
2020-01-11 01:00:00 1.3 9 Nordeste 13 Nordeste 0 -- -- 91
2020-01-11 00:00:00 2.1 9 Norte 10 Norte 0 -- -- 88
2020-01-10 23:00:00 2.8 3 Este 8 Sudeste 0 -- -- 85
2020-01-10 22:00:00 3 4 Este 9 Este 0 -- -- 83
2020-01-10 21:00:00 3.4 6 Este 12 Este 0 -- -- 82
2020-01-10 20:00:00 4 7 Este 15 Este 0 -- -- 81
2020-01-10 19:00:00 4.4 6 Este 14 Este 0 -- -- 79
2020-01-10 18:00:00 6.2 12 Este 24 Este 0 -- -- 69
2020-01-10 17:00:00 7.9 19 Este 28 Este 0 -- -- 61
2020-01-10 16:00:00 8.6 19 Este 28 Este 0 -- -- 58
2020-01-10 15:00:00 8.7 18 Nordeste 28 Nordeste 0 -- -- 56
2020-01-10 14:00:00 8.6 15 Nordeste 27 Nordeste 0 -- -- 59
2020-01-10 13:00:00 8.1 16 Nordeste 27 Nordeste 0 -- -- 61
2020-01-10 12:00:00 6.2 12 Norte 18 Norte 0 -- -- 77
2020-01-10 11:00:00 3.4 11 Norte 17 Norte 0 -- -- 84
2020-01-10 10:00:00 1.4 11 Norte 15 Norte 0 -- -- 86
2020-01-10 09:00:00 -0.1 12 Norte 14 Norte 0 -- -- 91
2020-01-10 08:00:00 -0.2 9 Norte 14 Noroeste 0 -- -- 96
2020-01-10 07:00:00 -1.5 7 Nordeste 14 Noroeste 0 -- -- 94
2020-01-10 06:00:00 0.6 9 Oeste 12 Oeste 0 -- -- 97
2020-01-10 05:00:00 0.7 3 Sudoeste 11 Oeste 0 -- -- 98
2020-01-10 04:00:00 0.7 11 Oeste 12 Oeste 0 -- -- 98
2020-01-10 03:00:00 1 7 Oeste 16 Oeste 0 -- -- 99
2020-01-10 02:00:00 1.1 14 Oeste 17 Oeste 0 -- -- 99
2020-01-10 01:00:00 1.4 14 Oeste 19 Oeste 0 -- -- 97
2020-01-10 00:00:00 1.9 16 Oeste 18 Sudoeste 0 -- -- 97
2020-01-09 23:00:00 3.2 17 Oeste 24 Oeste 0 -- -- 97
2020-01-09 22:00:00 4.3 16 Oeste 33 Oeste 0 -- -- 95
2020-01-09 21:00:00 4.9 21 Oeste 28 Oeste 0 -- -- 100
2020-01-09 20:00:00 5.9 14 Oeste 30 Oeste 0 -- -- 100
2020-01-09 19:00:00 6.3 13 Oeste 30 Oeste 0 -- -- 100
2020-01-09 18:00:00 7.8 22 Oeste 36 Oeste 0 -- -- 98
2020-01-09 17:00:00 8.9 21 Sudoeste 38 Sudoeste 0 -- -- 98
2020-01-09 16:00:00 8.9 35 Sudoeste 50 Sudoeste 0 -- -- 96
2020-01-09 15:00:00 8.5 36 Sudoeste 47 Sudoeste 0 -- -- 100
2020-01-09 14:00:00 6.8 27 Sudoeste 35 Sudoeste 0 -- -- 100
2020-01-09 13:00:00 5.2 17 Sudoeste 24 Sudoeste 0 -- -- 100
2020-01-09 12:00:00 3.7 17 Sudoeste 22 Sudoeste 0 -- -- 100
2020-01-09 11:00:00 2.5 14 Sudoeste 22 Sudoeste 0 -- -- 99
2020-01-09 10:00:00 1.2 10 Sudoeste 18 Oeste 0 -- -- 100
2020-01-09 09:00:00 0.4 14 Sudoeste 17 Oeste 0 -- -- 99
2020-01-09 08:00:00 0 12 Sudoeste 21 Oeste 0 -- -- 100
2020-01-09 07:00:00 0.4 8 Sudoeste 10 Sudoeste 0 -- -- 100
2020-01-09 06:00:00 -0.1 10 Sudoeste 17 Oeste 0 -- -- 100
2020-01-09 05:00:00 0.5 12 Oeste 18 Oeste 0 -- -- 100
2020-01-09 04:00:00 0.5 14 Oeste 18 Oeste 0 -- -- 99
2020-01-09 03:00:00 2 10 Sudoeste 14 Oeste 0 -- -- 96
2020-01-09 02:00:00 2.2 8 Oeste 10 Oeste 0 -- -- 96
2020-01-09 01:00:00 3.2 9 Oeste 11 Oeste 0 -- -- 93
2020-01-09 00:00:00 2.3 9 Sudoeste 15 Oeste 0 -- -- 97
2020-01-08 23:00:00 3.6 10 Oeste 13 Oeste 0 -- -- 94
2020-01-08 22:00:00 3.6 7 Sudoeste 8 Sudoeste 0 -- -- 95
2020-01-08 21:00:00 3.4 3 Sur 5 Sur 0 -- -- 94
2020-01-08 20:00:00 4.2 3 Sur 4 Sur 0 -- -- 95
2020-01-08 19:00:00 4.4 3 Sur 7 Sudeste 0 -- -- 94
2020-01-08 18:00:00 5.7 3 Sudeste 7 Sudeste 0 -- -- 94
2020-01-08 17:00:00 6.9 5 Sudeste 8 Sudeste 0 -- -- 100
2020-01-08 16:00:00 6.6 2 Sur 9 Nordeste 0 -- -- 100
2020-01-08 15:00:00 4 5 Este 9 Este 0 -- -- 100
2020-01-08 14:00:00 1.6 4 Este 13 Este 0 -- -- 100
2020-01-08 13:00:00 0.3 9 Este 14 Este 0 -- -- 100
2020-01-08 12:00:00 -0.5 0 Calma -- -- 0.2 -- -- 100
2020-01-08 11:00:00 -1.7 0 Calma -- -- 0 -- -- 100
2020-01-08 10:00:00 -2.6 0 Calma -- -- 0 -- -- 100
2020-01-08 09:00:00 -2.7 0 Calma -- -- 0 -- -- 100
2020-01-08 08:00:00 -2.5 0 Calma -- -- 0 -- -- 100
2020-01-08 07:00:00 -2.6 0 Calma -- -- 0 -- -- 100
2020-01-08 06:00:00 -2.7 0 Calma -- -- 0 -- -- 100
2020-01-08 05:00:00 -2.6 0 Calma -- -- 0 -- -- 100
2020-01-08 04:00:00 -2.6 0 Calma -- -- 0 -- -- 100
2020-01-08 03:00:00 -2.8 0 Calma -- -- 0 -- -- 100
2020-01-08 02:00:00 -2.9 0 Calma -- -- 0 -- -- 100
2020-01-08 01:00:00 -2.7 0 Calma -- -- 0 -- -- 100
2020-01-08 00:00:00 -2.9 0 Calma -- -- 0 -- -- 100
2020-01-07 23:00:00 -2.8 0 Calma 5 Este 0 -- -- 100
2020-01-07 22:00:00 -1.8 5 Este 7 Este 0 -- -- 100
2020-01-07 21:00:00 -1.3 3 Este 6 Este 0 -- -- 100
2020-01-07 20:00:00 -0.9 2 Este 6 Sudeste 0 -- -- 100
2020-01-07 19:00:00 -0.6 3 Sudeste 5 Sudeste 0 -- -- 100
2020-01-07 18:00:00 -0.2 3 Sudeste 7 Este 0 -- -- 100
2020-01-07 17:00:00 0.4 5 Este 8 Este 0 -- -- 100
2020-01-07 16:00:00 0.4 2 Este 7 Este 0 -- -- 100
2020-01-07 15:00:00 0 0 Calma -- -- 0 -- -- 100
2020-01-07 14:00:00 -0.2 0 Calma -- -- 0 -- -- 100
2020-01-07 13:00:00 -0.6 0 Calma -- -- 0 -- -- 100
2020-01-07 12:00:00 -1.1 0 Calma -- -- 0 -- -- 100
2020-01-07 11:00:00 -1.6 0 Calma -- -- 0 -- -- 100
2020-01-07 10:00:00 -1.9 0 Calma -- -- 0 -- -- 100
2020-01-07 09:00:00 -2 0 Calma -- -- 0 -- -- 100
2020-01-07 08:00:00 -1.9 0 Calma -- -- 0 -- -- 100
2020-01-07 07:00:00 -1.8 0 Calma -- -- 0 -- -- 100
2020-01-07 06:00:00 -1.9 0 Calma -- -- 0 -- -- 100
2020-01-07 05:00:00 -1.6 0 Calma -- -- 0 -- -- 100
2020-01-07 04:00:00 -1.8 0 Calma -- -- 0 -- -- 100
2020-01-07 03:00:00 -1.6 0 Calma -- -- 0 -- -- 100
2020-01-07 02:00:00 -1.7 0 Calma -- -- 0 -- -- 100
2020-01-07 01:00:00 -1.2 0 Calma 21 Nordeste 0 -- -- 100
2020-01-07 00:00:00 -1.4 15 Nordeste 20 Nordeste 0 -- -- 100
2020-01-06 23:00:00 -0.8 9 Nordeste 15 Nordeste 0 -- -- 100
2020-01-06 22:00:00 -0.6 6 Este 14 Este 0 -- -- 100
2020-01-06 21:00:00 0 8 Este 13 Este 0 -- -- 100
2020-01-06 20:00:00 0.3 6 Este 10 Este 0 -- -- 100
2020-01-06 19:00:00 0.4 2 Este 7 Nordeste 0 -- -- 100
2020-01-06 18:00:00 0.7 0 Calma 6 Noroeste 0 -- -- 100
2020-01-06 17:00:00 0.9 3 Sur 10 Sudeste 0 -- -- 100
2020-01-06 16:00:00 0.8 4 Sudeste 7 Sudeste 0 -- -- 100
2020-01-06 15:00:00 0.2 0 Calma 9 Norte 0 -- -- 100
2020-01-06 14:00:00 -0.3 3 Nordeste 7 Este 0 -- -- 100
2020-01-06 13:00:00 -0.7 0 Calma -- -- 0.2 -- -- 100
2020-01-06 12:00:00 -1.2 0 Calma -- -- 0 -- -- 100
2020-01-06 11:00:00 -1.4 0 Calma -- -- 0 -- -- 100
2020-01-06 10:00:00 -1.9 0 Calma -- -- 0 -- -- 100